This is the latest recevied weather packets stored in our database for station/object nz4d-1. If no packets are shown the sender has not sent any weather packets the latest 10 day(s).
| Time | Temp. | Humidity | Pressure | Rain* | Wind** | Luminosity | Snow |
|---|---|---|---|---|---|---|---|
| 1778024405 | 22.22° C | 65% | 1016.2 hPa | 0 mm | - | - | - |
| 1778022605 | 23.33° C | 63% | 1015.8 hPa | 0 mm | - | - | - |
| 1778021404 | 23.33° C | 61% | 1015.9 hPa | 0 mm | - | - | - |
| 1778014804 | 25.56° C | 53% | 1015.5 hPa | 0 mm | - | - | - |
| 1778013604 | 25.56° C | 53% | 1015.5 hPa | 0 mm | - | - | - |
| 1778006404 | 25.56° C | 52% | 1017.1 hPa | 0 mm | - | - | - |
| 1778002203 | 25.56° C | 53% | 1017.4 hPa | 0 mm | - | - | - |
| 1778001003 | 25.56° C | 54% | 1017.6 hPa | 0 mm | - | - | - |
| 1777999806 | 25.56° C | 53% | 1017.8 hPa | 0 mm | - | - | - |
| 1777993805 | 23.33° C | 62% | 1018.6 hPa | 0 mm | - | - | - |
| 1777992006 | 22.22° C | 64% | 1018.6 hPa | 0 mm | - | - | - |
| 1777989605 | 20.56° C | 73% | 1018.6 hPa | 0 mm | - | - | - |
| 1777986006 | 16.67° C | 84% | 1018.9 hPa | 0 mm | - | - | - |
| 1777983605 | 13.89° C | 95% | 1018.8 hPa | 0 mm | - | - | - |
| 1777980005 | 10.56° C | 94% | 1018.4 hPa | 0 mm | - | - | - |
| 1777977605 | 10.56° C | 90% | 1017.9 hPa | 0 mm | - | - | - |
| 1777968605 | 12.78° C | 85% | 1016.7 hPa | 0 mm | - | - | - |
| 1777967405 | 13.33° C | 84% | 1016.7 hPa | 0 mm | - | - | - |
| 1777966205 | 13.33° C | 82% | 1016.7 hPa | 0 mm | - | - | - |
| 1777960811 | 15° C | 77% | 1016.8 hPa | 0 mm | - | - | - |
| 1777959605 | 15° C | 76% | 1017 hPa | 0 mm | - | - | - |
| 1777953005 | 16.67° C | 73% | 1017 hPa | 0 mm | - | - | - |
| 1777945204 | 18.89° C | 66% | 1016.7 hPa | 0 mm | - | - | - |
| 1777942804 | 19.44° C | 64% | 1016.1 hPa | 0 mm | - | - | - |
| 1777942204 | 19.44° C | 64% | 1016 hPa | 0 mm | - | - | - |
* Rain latest hour (hover to see other rain measurements)
** Current wind speed in m/s (hover to see current wind gust speed)